Flight Track Log - Related Links

Times and Time Zones

All times are in EDT time to prevent confusion due to time zone crossing. See the SWA1910 flight status page for this flight to view local times or setup timezone preferences in your user account.

Time Position Orientation Groundspeed Altitude Reporting Facility
EDT Latitude Longitude Course Direction KTS MPH feet Rate Location/Type
Mon 07:28:49 PM 39.1500 -76.6500 131° Southeast 147 169 2,000  Level Potomac TRACON
Mon 07:29:49 PM 39.1167 -76.6000 131° Southeast 195 224 4,400 2,678 Climbing Potomac TRACON
Mon 07:30:50 PM 39.0500 -76.5500 150° Southeast 269 310 7,400 3,124 Climbing Potomac TRACON
Mon 07:31:50 PM 38.9833 -76.5000 150° Southeast 305 351 10,700 3,200 Climbing Potomac TRACON
Mon 07:32:50 PM 38.9000 -76.4333 148° Southeast 366 421 13,800 1,125 Climbing Potomac TRACON
Mon 07:35:02 PM 38.7281 -76.5683 211° Southwest 352 405 14,300 1,250 Climbing Washington Center
Mon 07:36:02 PM 38.6522 -76.6444 218° Southwest 347 399 17,800 2,350 Climbing Washington Center
Mon 07:37:02 PM 38.5661 -76.7147 213° Southwest 360 414 19,000 600 Climbing Washington Center
Mon 07:38:02 PM 38.4619 -76.7133 179° South 355 409 19,000 1,100 Level Washington Center
Mon 07:39:02 PM 38.3517 -76.6983 174° South 375 432 21,200 2,700 Climbing Washington Center
Mon 07:40:02 PM 38.2267 -76.6806 174° South 402 463 24,400 2,900 Climbing Washington Center
Mon 07:41:02 PM 38.1058 -76.6658 175° South 425 489 27,000 2,350 Climbing Washington Center
Mon 07:42:02 PM 37.9808 -76.6481 174° South 439 505 29,100 1,900 Climbing Washington Center
Mon 07:43:02 PM 37.8539 -76.6306 174° South 450 518 30,800 2,000 Climbing Washington Center
Mon 07:44:02 PM 37.7225 -76.6158 175° South 468 539 33,100 1,600 Climbing Washington Center
Mon 07:45:02 PM 37.5914 -76.5956 173° South 473 544 34,000 500 Climbing Washington Center
Mon 07:46:02 PM 37.4600 -76.5781 174° South 478 550 34,100 600 Climbing Washington Center
Mon 07:47:02 PM 37.3308 -76.5661 176° South 478 550 35,200 1,550 Climbing Washington Center
Mon 07:48:02 PM 37.2136 -76.6064 195° South 452 520 37,200 1,700 Climbing Washington Center
Mon 07:49:02 PM 37.1006 -76.6622 202° Southwest 433 498 38,600 1,250 Climbing Washington Center
Mon 07:50:02 PM 36.9853 -76.7153 200° South 439 505 39,700 700 Climbing Washington Center
Mon 07:51:02 PM 36.8681 -76.7681 200° South 451 519 40,000 150 Climbing Washington Center
Mon 07:52:02 PM 36.7547 -76.8208 200° South 446 513 40,000  Level Washington Center
Mon 07:53:02 PM 36.6394 -76.8733 200° South 446 513 40,000  Level Washington Center
Mon 07:54:02 PM 36.5264 -76.9231 199° South 446 513 40,000  Level Washington Center
Mon 07:55:02 PM 36.4108 -76.9781 201° Southwest 446 513 40,000  Level Washington Center
Mon 07:56:02 PM 36.2978 -77.0275 199° South 446 513 40,000  Level Washington Center
Mon 07:57:02 PM 36.1844 -77.0769 199° South 446 513 40,000  Level Washington Center
Mon 07:58:02 PM 36.0692 -77.1261 199° South 441 507 40,000  Level Washington Center
Mon 07:59:02 PM 35.9703 -77.1731 201° Southwest 436 502 40,000  Level Washington Center
Mon 08:00:02 PM 35.8569 -77.2219 199° South 436 502 40,000  Level Washington Center
Mon 08:01:02 PM 35.7417 -77.2733 200° South 436 502 40,000  Level Washington Center
Mon 08:02:02 PM 35.6242 -77.3219 199° South 436 502 40,000  Level Washington Center
Mon 08:03:02 PM 35.5106 -77.3756 201° Southwest 441 507 40,000  Level Washington Center
Mon 08:04:02 PM 35.3950 -77.4239 199° South 441 507 40,000  Level Washington Center
Mon 08:05:02 PM 35.2794 -77.4722 199° South 441 507 40,000  Level Washington Center
Mon 08:06:02 PM 35.1639 -77.5231 200° South 441 507 40,000  Level Washington Center
Mon 08:07:02 PM 35.0483 -77.5733 200° South 441 507 40,000  Level Washington Center
Mon 08:08:02 PM 34.9328 -77.6239 200° South 446 513 40,000  Level Washington Center
Mon 08:09:02 PM 34.8067 -77.6814 201° Southwest 446 513 40,000  Level Washington Center
Mon 08:10:02 PM 34.7056 -77.7269 200° South 446 513 40,000  Level Washington Center
Mon 08:11:02 PM 34.5900 -77.7742 199° South 446 513 40,000  Level Washington Center
Mon 08:12:02 PM 34.4786 -77.8242 200° South 446 513 40,000  Level Washington Center
Mon 08:14:03 PM 34.2306 -77.9122 196° South 435 501 40,000  Level Jacksonville Center
Mon 08:15:03 PM 34.1167 -77.9389 191° South 452 520 40,000  Level Jacksonville Center
Mon 08:16:03 PM 33.9972 -77.9758 194° South 452 520 40,000  Level Jacksonville Center
Mon 08:17:03 PM 33.8797 -78.0100 194° South 447 514 40,000  Level Jacksonville Center
Mon 08:18:03 PM 33.7600 -78.0439 193° South 447 514 40,000  Level Jacksonville Center
Mon 08:19:03 PM 33.6383 -78.0806 194° South 447 514 40,000  Level Jacksonville Center
Mon 08:20:03 PM 33.5206 -78.1144 193° South 447 514 40,000  Level Jacksonville Center
Mon 08:21:03 PM 33.4028 -78.1456 192° South 447 514 40,000  Level Jacksonville Center
Mon 08:22:03 PM 33.2831 -78.1819 194° South 447 514 40,000  Level Jacksonville Center
Mon 08:23:03 PM 33.1633 -78.2131 192° South 447 514 40,000  Level Jacksonville Center
Mon 08:24:03 PM 33.0478 -78.2486 194° South 447 514 40,000  Level Jacksonville Center
Mon 08:25:03 PM 32.9278 -78.2822 193° South 447 514 40,000  Level Jacksonville Center
Mon 08:26:03 PM 32.8122 -78.3128 193° South 447 514 40,000  Level Jacksonville Center
Mon 08:27:03 PM 32.6986 -78.3481 195° South 436 502 40,000  Level Jacksonville Center
Mon 08:28:03 PM 32.5789 -78.3814 193° South 436 502 40,000  Level Jacksonville Center
Mon 08:29:03 PM 32.4631 -78.4117 192° South 431 496 40,000  Level Jacksonville Center
Mon 08:30:03 PM 32.3350 -78.4500 194° South 431 496 40,000  Level Jacksonville Center
Mon 08:31:03 PM 32.2214 -78.4850 195° South 431 496 40,000  Level Jacksonville Center
Mon 08:32:03 PM 32.1056 -78.5197 194° South 431 496 40,000  Level Jacksonville Center
Mon 08:33:03 PM 31.9878 -78.5500 192° South 431 496 40,000  Level Jacksonville Center
Mon 08:34:03 PM 31.8739 -78.5822 194° South 431 496 40,000  Level Jacksonville Center
Mon 08:35:03 PM 31.7583 -78.6169 194° South 431 496 40,000  Level Jacksonville Center
Mon 08:36:03 PM 31.6406 -78.6517 194° South 431 496 40,000  Level Jacksonville Center
Mon 08:37:03 PM 31.5267 -78.6811 192° South 431 496 40,000  Level Jacksonville Center
Mon 08:38:03 PM 31.4069 -78.7206 196° South 431 496 40,000  Level Jacksonville Center
Mon 08:39:03 PM 31.2908 -78.7503 192° South 431 496 40,000  Level Jacksonville Center
Mon 08:40:03 PM 31.1772 -78.7867 195° South 424 488 40,000  Level Jacksonville Center
Mon 08:41:03 PM 31.0614 -78.8186 193° South 424 488 40,000  Level Jacksonville Center
Mon 08:42:03 PM 30.9456 -78.8500 193° South 429 494 40,000  Level Jacksonville Center
Mon 08:44:32 PM 30.6697 -78.9242 193° South 428 493 40,000  Level Miami Center
Mon 08:45:32 PM 30.5650 -78.9581 196° South 421 484 40,000  Level Miami Center
Mon 08:46:32 PM 30.4642 -79.0186 207° Southwest 410 472 40,000  Level Miami Center
Mon 08:47:32 PM 30.3631 -79.0742 205° Southwest 410 472 40,000  Level Miami Center
Mon 08:48:32 PM 30.2539 -79.1319 205° Southwest 415 478 40,000  Level Miami Center
Mon 08:49:32 PM 30.1508 -79.1875 205° Southwest 415 478 40,000  Level Miami Center
Mon 08:50:32 PM 30.0436 -79.2450 205° Southwest 421 484 40,000  Level Miami Center
Mon 08:51:32 PM 29.9278 -79.3094 206° Southwest 421 484 40,000  Level Miami Center
Mon 08:52:32 PM 29.8353 -79.3575 204° Southwest 421 484 40,000  Level Miami Center
Mon 08:53:32 PM 29.7214 -79.4267 208° Southwest 421 484 40,000  Level Miami Center
Mon 08:54:32 PM 29.6161 -79.4814 204° Southwest 421 484 40,000  Level Miami Center
Mon 08:55:32 PM 29.5108 -79.5361 204° Southwest 421 484 40,000  Level Miami Center
Mon 08:56:32 PM 29.4075 -79.5931 206° Southwest 421 484 40,000  Level Miami Center
Mon 08:57:32 PM 29.3022 -79.6475 204° Southwest 421 484 40,000  Level Miami Center
Mon 08:58:32 PM 29.1969 -79.6994 203° Southwest 421 484 40,000  Level Miami Center
Mon 08:59:32 PM 29.0936 -79.7539 205° Southwest 415 478 40,000  Level Miami Center
Mon 09:00:32 PM 28.9922 -79.8106 206° Southwest 415 478 40,000  Level Miami Center
Mon 09:01:32 PM 28.8869 -79.8647 204° Southwest 415 478 40,000  Level Miami Center
Mon 09:02:32 PM 28.7814 -79.9186 204° Southwest 415 478 40,000  Level Miami Center
Mon 09:03:32 PM 28.6758 -79.9747 205° Southwest 415 478 40,000 -700 Level Miami Center
Mon 09:04:32 PM 28.5892 -80.0219 206° Southwest 400 460 38,600 -1,650 Descending Miami Center
Mon 09:05:32 PM 28.4858 -80.0758 205° Southwest 400 460 36,700 -2,900 Descending Miami Center
Mon 09:06:32 PM 28.3697 -80.1339 204° Southwest 412 474 32,800 -3,050 Descending Miami Center
Mon 09:07:32 PM 28.2661 -80.1897 205° Southwest 412 474 30,600 -2,200 Descending Miami Center
Mon 09:08:32 PM 28.1650 -80.2386 203° Southwest 407 468 28,400 -2,200 Descending Miami Center
Mon 09:09:32 PM 28.0739 -80.2875 205° Southwest 401 461 26,200 -2,100 Descending Miami Center
Mon 09:10:32 PM 27.9789 -80.3364 204° Southwest 392 451 24,200 -2,033 Descending Miami Center
Mon 09:12:32 PM 27.7844 -80.4361 204° Southwest 380 437 20,100 -2,000 Descending Miami Center
Mon 09:13:32 PM 27.6975 -80.4828 205° Southwest 361 415 18,200 -1,300 Descending Miami Center
Mon 09:14:32 PM 27.6336 -80.5369 217° Southwest 339 390 17,500 -850 Descending Miami Center
Mon 09:15:32 PM 27.5650 -80.6097 223° Southwest 333 383 16,500 -750 Descending Miami Center
Mon 09:16:32 PM 27.4878 -80.6914 223° Southwest 345 397 16,000 -250 Descending Miami Center
Mon 09:17:32 PM 27.4189 -80.7686 225° Southwest 350 403 16,000  Level Miami Center
Mon 09:18:32 PM 27.3519 -80.8436 225° Southwest 350 403 16,000  Level Miami Center
Mon 09:19:32 PM 27.2897 -80.9044 221° Southwest 345 397 16,000 -200 Level Miami Center
Mon 09:20:32 PM 27.2208 -80.9767 223° Southwest 340 391 15,600 -750 Descending Miami Center
Mon 09:21:32 PM 27.1478 -81.0536 223° Southwest 331 381 14,500 -1,100 Descending Miami Center
Mon 09:22:32 PM 27.0808 -81.1258 224° Southwest 324 373 13,400 -1,150 Descending Miami Center
Mon 09:23:32 PM 27.0142 -81.1956 223° Southwest 324 373 12,200 -1,050 Descending Miami Center
Mon 09:24:32 PM 26.9581 -81.2517 222° Southwest 324 373 11,300 -900 Descending Miami Center
Mon 09:25:32 PM 26.8956 -81.3192 224° Southwest 324 373 10,400 -950 Descending Miami Center
Mon 09:26:32 PM 26.8225 -81.3886 220° Southwest 319 367 9,400 -950 Descending Miami Center
Mon 09:27:32 PM 26.7408 -81.3969 185° South 294 338 8,500 -950 Descending Miami Center
Mon 09:28:32 PM 26.6694 -81.4058 186° South 294 338 7,500 -1,000 Descending Miami Center
Mon 09:29:32 PM 26.6172 -81.4711 228° Southwest 274 315 6,500 -1,050 Descending Miami Center
Mon 09:30:32 PM 26.5711 -81.5461 236° Southwest 274 315 5,400 -1,050 Descending Miami Center
Mon 09:31:32 PM 26.5250 -81.6114 232° Southwest 274 315 4,400 -750 Descending Miami Center
Mon 09:32:32 PM 26.4789 -81.6814 234° Southwest 280 322 3,900 -500 Descending Miami Center
Mon 09:34:00 PM 26.5333 -81.7500 318° Northwest  Level FlightAware Approximate
Mon 09:41:00 PM 26.5362 -81.7552 318° Northwest  Level Estimated
Mon 09:42:00 PM 26.5333 -81.7500 318° Northwest  Level FlightAware Approximate
Mon 09:43:00 PM 26.5362 -81.7552 318° Northwest  Level Estimated
Mon 09:44:00 PM 26.5333 -81.7500 318° Northwest  Level FlightAware Approximate
Mon 09:45:00 PM 26.5362 -81.7552 318° Northwest  Level Estimated
Mon 09:46:00 PM 26.5333 -81.7500 318° Northwest  Level FlightAware Approximate
Mon 09:47:00 PM 26.5362 -81.7552 318° Northwest  Level Estimated
Mon 09:48:00 PM 26.5333 -81.7500 318° Northwest  Level FlightAware Approximate

Login

Don't have an account? Register now (free) for customized features, flight alerts, and more!